Time;durP1;ratioP1;P1;durP2;ratioP2;P2;SDS_P1;SDS_P2;PMS_P1;PMS_P2;Temp;Humidity;BMP_temperature;BMP_pressure;BME280_temperature;BME280_humidity;BME280_pressure;Samples;Min_cycle;Max_cycle;Signal;HPM_P1;HPM_P2
2023/12/28 00:02:18;;;;;;;3.03;1.40;;;;;;;10.08;79.01;100634.44;5057287;28;20044;-60
2023/12/28 00:04:44;;;;;;;2.58;1.60;;;;;;;10.09;80.25;100645.59;5058992;28;20040;-60
2023/12/28 00:07:09;;;;;;;2.50;1.40;;;;;;;10.19;79.97;100630.03;5057647;28;20040;-60
2023/12/28 00:09:35;;;;;;;3.50;1.67;;;;;;;10.29;80.09;100629.94;5040983;28;20137;-61
2023/12/28 00:12:00;;;;;;;3.03;1.63;;;;;;;10.33;79.71;100624.72;5040526;28;20441;-61
2023/12/28 00:14:26;;;;;;;2.05;1.30;;;;;;;10.32;79.67;100628.19;5055793;28;20040;-61
2023/12/28 00:16:51;;;;;;;2.17;1.27;;;;;;;10.35;79.49;100623.00;5057900;28;20665;-61
2023/12/28 00:19:16;;;;;;;2.88;1.27;;;;;;;10.40;79.32;100617.78;5056364;28;20185;-61
2023/12/28 00:21:42;;;;;;;6.35;1.85;;;;;;;10.38;80.07;100617.81;5055647;28;20044;-61
2023/12/28 00:24:07;;;;;;;2.72;1.80;;;;;;;10.43;79.60;100623.78;5053477;28;20047;-61
2023/12/28 00:26:32;;;;;;;3.58;1.75;;;;;;;10.45;79.77;100637.53;5057896;28;20052;-59
2023/12/28 00:28:58;;;;;;;1.98;1.40;;;;;;;10.48;80.49;100645.25;5060188;28;20043;-59
2023/12/28 00:31:23;;;;;;;1.92;1.20;;;;;;;10.50;81.71;100658.16;5054173;28;20614;-59
2023/12/28 00:33:50;;;;;;;2.80;1.67;;;;;;;10.44;81.71;100666.84;5057765;28;20119;-59
2023/12/28 00:36:16;;;;;;;1.65;1.17;;;;;;;10.41;82.66;100682.38;5057233;28;20097;-59
2023/12/28 00:38:41;;;;;;;3.03;1.67;;;;;;;10.32;84.85;100707.41;5042510;28;20094;-59
2023/12/28 00:41:07;;;;;;;2.85;1.30;;;;;;;10.20;87.04;100721.28;5058753;28;20032;-59
2023/12/28 00:43:32;;;;;;;1.80;1.42;;;;;;;10.14;87.42;100716.16;5057983;28;20535;-59
2023/12/28 00:45:57;;;;;;;2.42;1.63;;;;;;;10.11;88.48;100734.28;5056273;28;20040;-59
2023/12/28 00:48:23;;;;;;;3.13;1.30;;;;;;;10.06;88.18;100715.38;5053727;28;20040;-59
2023/12/28 00:50:48;;;;;;;1.98;1.20;;;;;;;10.03;88.79;100703.31;5057646;28;20044;-59
2023/12/28 00:53:13;;;;;;;5.75;1.30;;;;;;;10.03;89.22;100702.50;5057718;28;20028;-59
2023/12/28 00:55:39;;;;;;;2.58;1.35;;;;;;;10.01;89.67;100699.91;5057149;28;20036;-63
2023/12/28 00:58:04;;;;;;;2.00;1.35;;;;;;;10.07;88.98;100689.53;5056790;28;20041;-63
2023/12/28 01:00:29;;;;;;;2.17;1.20;;;;;;;10.11;88.00;100696.41;5055854;28;20048;-63
2023/12/28 01:02:55;;;;;;;2.90;1.20;;;;;;;10.13;88.40;100711.88;5056599;28;20124;-63
2023/12/28 01:05:21;;;;;;;3.60;1.30;;;;;;;10.10;89.24;100710.16;5038825;28;20389;-63
2023/12/28 01:07:46;;;;;;;3.65;1.23;;;;;;;10.11;88.63;100711.03;5057617;28;20036;-63
2023/12/28 01:10:12;;;;;;;7.07;1.52;;;;;;;10.08;88.95;100709.31;5056706;28;20515;-58
2023/12/28 01:12:37;;;;;;;1.67;1.20;;;;;;;10.12;88.16;100713.59;5055996;28;20075;-58
2023/12/28 01:15:03;;;;;;;2.50;1.20;;;;;;;10.12;88.92;100718.75;5057671;28;20489;-58
2023/12/28 01:17:28;;;;;;;1.23;1.02;;;;;;;10.15;88.38;100730.78;5055600;28;20033;-58
2023/12/28 01:19:53;;;;;;;2.63;1.23;;;;;;;10.13;89.29;100728.22;5054548;28;20131;-63
2023/12/28 01:22:19;;;;;;;1.45;1.00;;;;;;;10.18;88.66;100734.19;5054683;28;20139;-63
2023/12/28 01:24:49;;;;;;;1.52;1.05;;;;;;;10.17;89.39;100745.41;5056286;28;20072;-63
2023/12/28 01:27:14;;;;;;;0.95;0.70;;;;;;;10.17;88.65;100748.00;5054455;28;20584;-63
2023/12/28 01:29:40;;;;;;;2.33;1.33;;;;;;;10.20;88.71;100747.13;5056859;28;20044;-63
2023/12/28 01:32:05;;;;;;;2.25;1.10;;;;;;;10.22;88.11;100760.88;5057943;28;20164;-63
2023/12/28 01:34:30;;;;;;;1.83;1.10;;;;;;;10.22;88.34;100747.97;5057093;28;20593;-63
2023/12/28 01:36:56;;;;;;;1.52;1.00;;;;;;;10.24;88.73;100752.25;5056474;28;20040;-63
2023/12/28 01:39:21;;;;;;;2.42;1.13;;;;;;;10.26;88.35;100757.41;5055259;28;20044;-63
2023/12/28 01:41:46;;;;;;;1.10;0.90;;;;;;;10.28;88.44;100762.56;5055863;28;20519;-63
2023/12/28 01:44:12;;;;;;;2.08;1.08;;;;;;;10.26;88.91;100756.56;5056373;28;20021;-63
2023/12/28 01:46:37;;;;;;;1.55;1.10;;;;;;;10.28;88.40;100763.41;5055107;28;20590;-63
2023/12/28 01:49:04;;;;;;;1.70;0.88;;;;;;;10.28;88.60;100772.88;5055409;28;20041;-63
2023/12/28 01:51:31;;;;;;;1.13;0.80;;;;;;;10.31;88.35;100772.88;5053780;28;20036;-63
2023/12/28 01:53:57;;;;;;;1.20;0.75;;;;;;;10.30;88.18;100772.00;5056274;28;20064;-63
2023/12/28 01:56:23;;;;;;;1.25;0.82;;;;;;;10.29;88.88;100780.66;5055715;28;20052;-62
2023/12/28 01:58:50;;;;;;;1.70;0.90;;;;;;;10.28;89.09;100790.97;5055981;28;20044;-63
2023/12/28 02:01:16;;;;;;;2.10;1.00;;;;;;;10.24;89.95;100797.88;5053377;28;20048;-63
2023/12/28 02:03:42;;;;;;;1.65;1.02;;;;;;;10.27;89.79;100784.09;5055013;28;20040;-64
2023/12/28 02:06:08;;;;;;;2.10;0.70;;;;;;;10.27;89.68;100807.34;5055554;28;20160;-63
2023/12/28 02:08:33;;;;;;;1.48;0.80;;;;;;;10.33;89.44;100800.41;5043655;28;20040;-63
2023/12/28 02:10:59;;;;;;;1.70;0.95;;;;;;;10.38;88.86;100790.03;5056872;28;20048;-63
2023/12/28 02:13:25;;;;;;;1.48;0.80;;;;;;;10.35;89.10;100783.19;5055747;28;20097;-63
2023/12/28 02:16:19;;;;;;;1.58;0.73;;;;;;;10.38;88.72;100787.47;5055698;28;20042;-63
2023/12/28 02:18:51;;;;;;;1.13;0.70;;;;;;;10.35;89.09;100778.00;5049536;28;20464;-63
2023/12/28 02:21:18;;;;;;;1.40;1.00;;;;;;;10.31;88.48;100772.88;5051878;28;20037;-63
2023/12/28 02:23:48;;;;;;;2.63;1.20;;;;;;;10.26;89.25;100775.50;5052621;28;20040;-63
2023/12/28 02:26:13;;;;;;;2.20;0.98;;;;;;;10.23;88.38;100778.97;5053503;28;20798;-63
2023/12/28 02:28:39;;;;;;;1.17;0.90;;;;;;;10.18;89.24;100777.25;5054160;28;20139;-63
2023/12/28 02:31:07;;;;;;;1.35;0.95;;;;;;;10.14;89.09;100781.59;5055415;28;20040;-63
2023/12/28 02:33:38;;;;;;;4.28;1.20;;;;;;;10.12;89.10;100780.72;5054684;28;20048;-63
2023/12/28 02:36:15;;;;;;;1.55;1.00;;;;;;;10.07;89.63;100791.97;5054807;28;20086;-64
2023/12/28 02:38:42;;;;;;;4.50;1.10;;;;;;;10.04;90.01;100784.22;5052410;28;20139;-63
2023/12/28 02:41:08;;;;;;;2.00;1.10;;;;;;;9.99;90.06;100801.50;5054376;28;20086;-63
2023/12/28 02:43:34;;;;;;;2.17;1.33;;;;;;;9.95;90.84;100820.44;5053206;28;20028;-63
2023/12/28 02:46:00;;;;;;;2.20;1.52;;;;;;;9.88;90.99;100804.09;5055314;28;20036;-63
2023/12/28 02:48:25;;;;;;;2.30;1.30;;;;;;;9.79;91.37;100808.47;5048345;28;20040;-63
2023/12/28 02:50:51;;;;;;;1.77;1.08;;;;;;;9.70;91.45;100813.69;5053646;28;20029;-63
2023/12/28 02:53:16;;;;;;;2.90;1.02;;;;;;;9.59;93.01;100813.69;5057513;28;20055;-59
2023/12/28 02:55:42;;;;;;;1.98;1.00;;;;;;;9.52;93.33;100810.28;5056822;28;20040;-59
2023/12/28 02:58:07;;;;;;;2.95;1.15;;;;;;;9.45;94.23;100806.00;5052493;28;20515;-59
2023/12/28 03:00:33;;;;;;;2.55;1.20;;;;;;;9.39;93.75;100802.56;5059443;28;20036;-59
2023/12/28 03:02:58;;;;;;;1.63;1.00;;;;;;;9.36;94.64;100802.56;5057782;28;20067;-59
2023/12/28 03:05:23;;;;;;;1.98;1.00;;;;;;;9.30;94.71;100802.59;5057692;28;20478;-59
2023/12/28 03:07:49;;;;;;;2.92;1.60;;;;;;;9.24;95.80;100806.03;5060383;28;20107;-60
2023/12/28 03:10:15;;;;;;;7.00;1.75;;;;;;;9.22;95.41;100797.47;5060716;28;20123;-59
2023/12/28 03:12:40;;;;;;;1.85;1.25;;;;;;;9.16;95.89;100800.06;5055695;28;20047;-59
2023/12/28 03:15:06;;;;;;;1.77;1.17;;;;;;;9.11;96.18;100800.03;5061092;28;20040;-59
2023/12/28 03:17:32;;;;;;;2.08;1.10;;;;;;;9.07;97.09;100800.06;5061140;28;20433;-59
2023/12/28 03:20:01;;;;;;;1.70;1.05;;;;;;;9.06;97.38;100806.06;5065759;28;20115;-59
2023/12/28 03:22:26;;;;;;;2.60;1.20;;;;;;;9.05;97.82;100800.06;5063854;28;20423;-59
2023/12/28 03:24:52;;;;;;;2.40;1.25;;;;;;;9.03;97.76;100801.78;5064295;28;20052;-59
2023/12/28 03:27:17;;;;;;;1.42;1.13;;;;;;;8.98;98.21;100798.38;5060131;28;20060;-59
2023/12/28 03:29:43;;;;;;;1.50;1.00;;;;;;;8.94;98.43;100801.81;5063974;28;20040;-59
2023/12/28 03:32:08;;;;;;;1.67;1.17;;;;;;;8.97;98.72;100794.06;5061693;28;20120;-59
2023/12/28 03:34:34;;;;;;;3.00;1.33;;;;;;;8.95;98.93;100789.78;5067932;28;20040;-59
2023/12/28 03:37:00;;;;;;;2.88;1.38;;;;;;;8.93;98.71;100789.75;5063960;28;20040;-59
2023/12/28 03:39:25;;;;;;;2.13;1.33;;;;;;;8.91;99.54;100788.91;5063427;28;20094;-59
2023/12/28 03:41:52;;;;;;;2.95;1.45;;;;;;;8.91;99.44;100778.59;5066189;28;20090;-61
2023/12/28 03:44:18;;;;;;;2.50;1.42;;;;;;;8.88;99.51;100777.75;5060720;28;20063;-61
2023/12/28 03:46:43;;;;;;;3.80;1.35;;;;;;;8.83;99.53;100787.22;5062667;28;20464;-61
2023/12/28 03:49:09;;;;;;;2.53;1.23;;;;;;;8.77;100.00;100782.06;5057621;28;20045;-61
2023/12/28 03:51:34;;;;;;;1.73;1.17;;;;;;;8.70;100.00;100781.19;5062148;28;20029;-61
2023/12/28 03:53:59;;;;;;;2.78;1.20;;;;;;;8.68;100.00;100795.81;5057658;28;20051;-61
2023/12/28 03:56:26;;;;;;;1.58;1.10;;;;;;;8.67;100.00;100786.34;5058415;28;20839;-61
2023/12/28 03:58:51;;;;;;;3.83;1.40;;;;;;;8.62;100.00;100789.78;5060924;28;20056;-61
2023/12/28 04:01:21;;;;;;;2.20;1.45;;;;;;;8.55;100.00;100789.78;5057453;28;20044;-61
2023/12/28 04:03:47;;;;;;;5.20;1.60;;;;;;;8.56;100.00;100780.34;5054752;28;20037;-61
2023/12/28 04:06:14;;;;;;;2.25;1.65;;;;;;;8.57;100.00;100782.09;5056886;28;20045;-61
2023/12/28 04:08:40;;;;;;;3.17;1.27;;;;;;;8.50;100.00;100781.22;5054993;28;20119;-61
2023/12/28 04:11:06;;;;;;;2.33;1.13;;;;;;;8.46;100.00;100776.03;5054843;28;20033;-61
2023/12/28 04:13:31;;;;;;;2.70;1.30;;;;;;;8.40;100.00;100773.47;5056961;28;20036;-61
2023/12/28 04:15:56;;;;;;;2.92;1.38;;;;;;;8.40;100.00;100771.75;5058340;28;20528;-61
2023/12/28 04:18:22;;;;;;;3.53;1.65;;;;;;;8.38;100.00;100777.78;5054666;28;20193;-61
2023/12/28 04:20:47;;;;;;;2.00;1.40;;;;;;;8.41;100.00;100781.22;5057518;28;20586;-61
2023/12/28 04:23:14;;;;;;;2.40;1.42;;;;;;;8.46;100.00;100774.34;5057574;28;20041;-60
2023/12/28 04:25:39;;;;;;;1.88;1.30;;;;;;;8.55;100.00;100773.47;5058582;28;20028;-61
2023/12/28 04:28:05;;;;;;;3.00;1.60;;;;;;;8.69;100.00;100764.03;5042883;28;20040;-61
2023/12/28 04:30:31;;;;;;;2.00;1.33;;;;;;;8.69;100.00;100764.03;5044085;28;20495;-61
2023/12/28 04:32:56;;;;;;;3.78;1.95;;;;;;;8.70;100.00;100767.44;5054713;28;20067;-61
2023/12/28 04:35:21;;;;;;;2.95;1.83;;;;;;;8.62;100.00;100764.91;5056623;28;20583;-61
2023/12/28 04:37:47;;;;;;;3.75;3.20;;;;;;;8.59;100.00;100770.03;5056527;28;20497;-61
2023/12/28 04:40:14;;;;;;;4.47;2.65;;;;;;;8.52;100.00;100771.75;5057347;28;20095;-60
2023/12/28 04:42:39;;;;;;;3.20;1.80;;;;;;;8.48;100.00;100771.78;5057058;28;20042;-61
2023/12/28 04:45:05;;;;;;;2.17;1.65;;;;;;;8.49;100.00;100773.47;5041208;28;20036;-61
2023/12/28 04:47:31;;;;;;;3.90;2.05;;;;;;;8.49;100.00;100779.47;5048322;28;20109;-61
2023/12/28 04:49:56;;;;;;;3.13;2.03;;;;;;;8.42;100.00;100782.94;5055723;28;20040;-61
2023/12/28 04:52:22;;;;;;;2.88;1.95;;;;;;;8.38;100.00;100783.78;5057343;28;20101;-61
2023/12/28 04:54:47;;;;;;;3.13;1.75;;;;;;;8.36;100.00;100782.06;5058302;28;20382;-61
2023/12/28 04:57:12;;;;;;;2.15;1.50;;;;;;;8.39;100.00;100779.50;5056793;28;20472;-59
2023/12/28 04:59:39;;;;;;;3.78;2.30;;;;;;;8.42;100.00;100776.94;5058830;28;20038;-59
2023/12/28 05:02:04;;;;;;;6.38;1.80;;;;;;;8.42;100.00;100776.94;5053360;28;20493;-59
2023/12/28 05:04:30;;;;;;;2.75;1.90;;;;;;;8.38;100.00;100783.78;5058357;28;20039;-59
2023/12/28 05:06:55;;;;;;;3.17;1.80;;;;;;;8.40;100.00;100783.75;5056062;28;20036;-59
2023/12/28 05:09:21;;;;;;;3.20;1.92;;;;;;;8.33;100.00;100785.50;5056458;28;20036;-59
2023/12/28 05:11:46;;;;;;;4.13;1.58;;;;;;;8.27;100.00;100794.94;5057833;28;20508;-59
2023/12/28 05:14:11;;;;;;;4.18;1.92;;;;;;;8.28;100.00;100783.75;5057062;28;20028;-60
2023/12/28 05:16:37;;;;;;;3.33;1.88;;;;;;;8.22;100.00;100789.75;5057153;28;20043;-59
2023/12/28 05:19:02;;;;;;;3.60;1.90;;;;;;;8.15;100.00;100790.63;5057146;28;20040;-59
2023/12/28 05:21:27;;;;;;;2.90;1.60;;;;;;;8.13;100.00;100804.34;5057597;28;20738;-59
2023/12/28 05:23:53;;;;;;;3.95;1.55;;;;;;;8.08;100.00;100803.47;5054847;28;20048;-59
2023/12/28 05:26:18;;;;;;;2.72;1.95;;;;;;;8.06;100.00;100805.19;5057527;28;20036;-59
2023/12/28 05:28:44;;;;;;;1.77;1.23;;;;;;;8.00;100.00;100814.63;5056464;28;20055;-58
2023/12/28 05:31:09;;;;;;;3.35;1.98;;;;;;;7.96;100.00;100812.00;5056589;28;20555;-58
2023/12/28 05:33:34;;;;;;;3.15;1.92;;;;;;;7.95;100.00;100807.75;5055914;28;20100;-58
2023/12/28 05:36:00;;;;;;;3.67;1.83;;;;;;;7.93;100.00;100804.28;5055701;28;20043;-58
2023/12/28 05:38:25;;;;;;;4.07;1.92;;;;;;;7.88;100.00;100809.44;5055895;28;20139;-58
2023/12/28 05:40:50;;;;;;;7.05;1.92;;;;;;;8.04;100.00;100809.47;5055198;28;20028;-59
2023/12/28 05:43:16;;;;;;;2.80;1.60;;;;;;;8.05;100.00;100818.91;5054759;28;20779;-59
2023/12/28 05:45:41;;;;;;;3.33;2.28;;;;;;;8.32;100.00;100814.69;5057373;28;20048;-59
2023/12/28 05:48:07;;;;;;;4.45;2.00;;;;;;;8.35;100.00;100809.53;5055188;28;20119;-59
2023/12/28 05:50:32;;;;;;;4.10;2.60;;;;;;;8.24;100.00;100818.09;5056044;28;20133;-60
2023/12/28 05:52:57;;;;;;;5.15;1.92;;;;;;;8.21;100.00;100824.09;5040482;28;20587;-59
2023/12/28 05:55:23;;;;;;;5.63;2.13;;;;;;;8.17;100.00;100829.22;5054267;28;20048;-59
2023/12/28 05:57:48;;;;;;;5.20;2.03;;;;;;;8.15;100.00;100823.22;5056313;28;20089;-59
2023/12/28 06:00:17;;;;;;;2.88;2.03;;;;;;;8.11;100.00;100826.63;5039434;28;20109;-59
2023/12/28 06:02:42;;;;;;;4.68;1.95;;;;;;;8.04;100.00;100824.94;5054203;28;20028;-59
2023/12/28 06:05:07;;;;;;;4.05;2.00;;;;;;;7.98;100.00;100834.31;5058051;28;20068;-59
2023/12/28 06:07:33;;;;;;;3.55;1.80;;;;;;;8.00;100.00;100835.22;5056915;28;20043;-59
2023/12/28 06:09:58;;;;;;;4.25;2.10;;;;;;;7.97;100.00;100842.94;5055922;28;20131;-59
2023/12/28 06:12:24;;;;;;;3.95;1.70;;;;;;;7.95;100.00;100854.91;5054677;28;20040;-59
2023/12/28 06:14:50;;;;;;;4.00;2.33;;;;;;;8.06;100.00;100857.53;5055239;28;20099;-59
2023/12/28 06:17:15;;;;;;;4.15;2.08;;;;;;;7.99;100.00;100858.34;5054956;28;20054;-59
2023/12/28 06:19:41;;;;;;;2.60;1.83;;;;;;;7.91;100.00;100860.91;5053994;28;20035;-60
2023/12/28 06:22:06;;;;;;;3.95;2.00;;;;;;;7.83;100.00;100870.28;5040077;28;20040;-59
2023/12/28 06:24:32;;;;;;;4.90;2.00;;;;;;;7.79;100.00;100868.59;5055405;28;20135;-59
2023/12/28 06:26:57;;;;;;;4.38;1.85;;;;;;;7.88;100.00;100872.91;5056705;28;20601;-59
2023/12/28 06:29:23;;;;;;;3.25;1.60;;;;;;;7.84;100.00;100873.72;5053908;28;20048;-59
2023/12/28 06:31:48;;;;;;;6.03;2.00;;;;;;;7.83;100.00;100861.75;5054365;28;20488;-59
2023/12/28 06:34:13;;;;;;;2.55;2.08;;;;;;;7.79;100.00;100878.88;5056398;28;20337;-59
2023/12/28 06:36:39;;;;;;;4.05;1.90;;;;;;;7.97;100.00;100870.38;5042222;28;20047;-59
2023/12/28 06:39:04;;;;;;;3.10;2.00;;;;;;;7.95;100.00;100872.09;5037585;28;20047;-59
2023/12/28 06:41:29;;;;;;;3.38;1.90;;;;;;;8.02;100.00;100869.53;5054410;28;20040;-59
2023/12/28 06:43:55;;;;;;;3.55;1.75;;;;;;;8.07;100.00;100861.81;5057253;28;21053;-59
2023/12/28 06:46:21;;;;;;;4.03;1.70;;;;;;;8.08;100.00;100865.25;5054984;28;20042;-59
2023/12/28 06:48:46;;;;;;;2.92;1.77;;;;;;;8.07;100.00;100864.38;5052922;28;20717;-59
2023/12/28 06:51:21;;;;;;;3.35;2.20;;;;;;;8.10;100.00;100864.38;5056926;28;20036;-59
2023/12/28 06:53:48;;;;;;;;;;;;;;;8.12;100.00;100859.25;5060191;28;20048;-60
2023/12/28 06:56:14;;;;;;;4.97;2.20;;;;;;;8.17;100.00;100857.56;5057430;28;19920;-60
2023/12/28 06:58:40;;;;;;;2.30;1.70;;;;;;;8.34;99.80;100851.59;5059588;28;20124;-58
2023/12/28 07:01:05;;;;;;;3.10;2.22;;;;;;;8.32;99.52;100847.28;5056031;28;20051;-58
2023/12/28 07:03:32;;;;;;;5.72;2.38;;;;;;;8.25;98.84;100851.56;5057986;28;20044;-59
2023/12/28 07:05:58;;;;;;;5.55;2.80;;;;;;;8.24;99.06;100851.56;5060146;28;20151;-58
2023/12/28 07:08:24;;;;;;;8.98;4.47;;;;;;;8.21;99.43;100854.13;5057619;28;20056;-61
2023/12/28 07:10:49;;;;;;;9.15;5.07;;;;;;;8.14;99.70;100868.72;5059414;28;20916;-61
2023/12/28 07:13:15;;;;;;;14.07;7.35;;;;;;;8.11;100.00;100863.53;5055627;28;20093;-61
2023/12/28 07:15:40;;;;;;;7.40;4.07;;;;;;;8.12;100.00;100861.84;5054402;28;20048;-61
2023/12/28 07:18:06;;;;;;;3.20;2.15;;;;;;;8.13;100.00;100861.81;5039577;28;20058;-58
2023/12/28 07:20:31;;;;;;;6.28;3.03;;;;;;;8.11;99.93;100865.25;5055829;28;20040;-64
2023/12/28 07:22:57;;;;;;;5.55;1.92;;;;;;;8.01;100.00;100867.81;5058894;28;20527;-64
2023/12/28 07:25:22;;;;;;;4.70;1.90;;;;;;;7.95;100.00;100870.34;5057412;28;20066;-64
2023/12/28 07:27:47;;;;;;;4.32;2.20;;;;;;;7.95;100.00;100882.38;5057352;28;20592;-64
2023/12/28 07:30:13;;;;;;;6.22;2.08;;;;;;;7.94;100.00;100886.66;5057614;28;20098;-63
2023/12/28 07:32:39;;;;;;;3.95;2.00;;;;;;;7.86;100.00;100890.91;5047023;28;20048;-63
2023/12/28 07:35:04;;;;;;;3.88;1.95;;;;;;;7.89;100.00;100897.81;5056480;28;20036;-63
2023/12/28 07:37:30;;;;;;;4.80;1.80;;;;;;;7.83;100.00;100890.88;5057970;28;20568;-63
2023/12/28 07:39:55;;;;;;;6.30;3.03;;;;;;;7.79;100.00;100894.31;5059008;28;20104;-63
2023/12/28 07:42:20;;;;;;;3.53;1.83;;;;;;;7.73;100.00;100891.72;5057098;28;20024;-64
2023/12/28 07:44:46;;;;;;;7.78;2.75;;;;;;;7.76;100.00;100891.72;5055886;28;20044;-63
2023/12/28 07:47:12;;;;;;;5.43;2.55;;;;;;;7.74;100.00;100892.56;5057957;28;20050;-63
2023/12/28 07:49:37;;;;;;;6.47;2.70;;;;;;;7.74;100.00;100890.88;5056051;28;20044;-63
2023/12/28 07:52:03;;;;;;;3.53;1.83;;;;;;;7.89;100.00;100884.94;5059004;28;20040;-58
2023/12/28 07:54:29;;;;;;;3.85;2.05;;;;;;;7.91;100.00;100889.22;5056032;28;20040;-59
2023/12/28 07:56:54;;;;;;;4.38;2.22;;;;;;;7.83;100.00;100897.78;5057435;28;20493;-58
2023/12/28 07:59:19;;;;;;;5.35;2.00;;;;;;;7.76;100.00;100903.72;5056829;28;20567;-59
2023/12/28 08:01:45;;;;;;;5.60;2.15;;;;;;;7.83;100.00;100896.03;5054879;28;20137;-64
2023/12/28 08:04:11;;;;;;;5.03;1.65;;;;;;;7.76;100.00;100903.72;5037876;28;20068;-65
2023/12/28 08:06:36;;;;;;;4.82;2.05;;;;;;;7.72;100.00;100907.13;5061451;28;20235;-63
2023/12/28 08:09:01;;;;;;;6.07;2.55;;;;;;;7.81;100.00;100913.19;5054937;28;20028;-63
2023/12/28 08:11:27;;;;;;;7.63;2.20;;;;;;;7.77;100.00;100915.75;5056194;28;20251;-64
2023/12/28 08:13:53;;;;;;;5.32;2.05;;;;;;;7.77;100.00;100915.75;5055861;28;20143;-63
2023/12/28 08:16:19;;;;;;;6.20;2.38;;;;;;;7.77;100.00;100919.16;5055819;28;20036;-64
2023/12/28 08:18:44;;;;;;;4.28;2.00;;;;;;;7.75;100.00;100923.44;5055769;28;20032;-64
2023/12/28 08:21:10;;;;;;;5.63;2.03;;;;;;;7.75;100.00;100927.72;5039069;28;20090;-63
2023/12/28 08:23:35;;;;;;;6.97;1.98;;;;;;;7.77;100.00;100936.34;5062829;28;20041;-64
2023/12/28 08:26:00;;;;;;;5.32;2.50;;;;;;;7.90;100.00;100938.09;5059466;28;20032;-61
2023/12/28 08:28:26;;;;;;;4.47;1.73;;;;;;;7.94;100.00;100942.44;5064124;28;20044;-61
2023/12/28 08:30:51;;;;;;;3.53;2.33;;;;;;;8.00;100.00;100940.75;5057883;28;20050;-61
2023/12/28 08:33:16;;;;;;;4.47;2.20;;;;;;;8.10;100.00;100944.19;5057544;28;20036;-61
2023/12/28 08:35:42;;;;;;;4.72;1.92;;;;;;;8.22;100.00;100944.25;5056871;28;20025;-61
2023/12/28 08:38:07;;;;;;;6.38;2.25;;;;;;;8.35;99.67;100942.59;5053917;28;20043;-62
2023/12/28 08:40:33;;;;;;;6.10;1.85;;;;;;;8.60;98.51;100940.97;5053092;28;20045;-61
2023/12/28 08:42:58;;;;;;;4.28;2.08;;;;;;;8.81;96.71;100921.22;5055794;28;20452;-61
2023/12/28 08:45:24;;;;;;;5.57;2.03;;;;;;;8.89;95.68;100922.09;5057724;28;20064;-61
2023/12/28 08:47:49;;;;;;;5.70;1.90;;;;;;;8.98;95.18;100927.28;5050778;28;20090;-61
2023/12/28 08:50:15;;;;;;;5.18;2.13;;;;;;;9.12;95.23;100922.09;5050984;28;20089;-62
2023/12/28 08:52:40;;;;;;;6.38;2.40;;;;;;;9.26;93.94;100927.28;5053435;28;20147;-58
2023/12/28 08:55:06;;;;;;;4.82;2.10;;;;;;;9.39;93.61;100921.22;5056588;28;20043;-58
2023/12/28 08:57:31;;;;;;;6.18;2.08;;;;;;;9.53;93.63;100925.50;5055354;28;20116;-59
2023/12/28 08:59:57;;;;;;;2.70;1.73;;;;;;;9.66;92.59;100935.00;5057410;28;20044;-59
2023/12/28 09:02:23;;;;;;;4.93;2.30;;;;;;;9.80;91.18;100916.00;5055146;28;20118;-58
2023/12/28 09:04:48;;;;;;;3.72;1.75;;;;;;;9.95;91.21;100918.56;5056817;28;20056;-58
2023/12/28 09:07:14;;;;;;;3.75;2.00;;;;;;;10.08;90.84;100915.06;5057135;28;20104;-59
2023/12/28 09:09:39;;;;;;;6.63;2.10;;;;;;;10.17;89.67;100910.72;5056548;28;20836;-58
2023/12/28 09:12:05;;;;;;;4.68;2.08;;;;;;;10.31;89.35;100920.13;5056461;28;20933;-59
2023/12/28 09:14:30;;;;;;;4.28;2.45;;;;;;;10.40;89.01;100913.19;5055444;28;20822;-59
2023/12/28 09:16:56;;;;;;;3.97;1.63;;;;;;;10.49;88.54;100910.56;5052827;28;20044;-58
2023/12/28 09:19:22;;;;;;;6.95;2.10;;;;;;;10.62;86.24;100881.16;5040852;28;20044;-61
2023/12/28 09:21:48;;;;;;;6.25;2.53;;;;;;;10.77;86.04;100887.97;5052770;28;20112;-61
2023/12/28 09:24:14;;;;;;;5.35;2.28;;;;;;;10.86;85.08;100890.47;5058350;28;20025;-61
2023/12/28 09:26:41;;;;;;;7.03;3.55;;;;;;;10.98;83.81;100856.75;5039502;28;20043;-61
2023/12/28 09:29:07;;;;;;;4.60;2.08;;;;;;;11.13;82.78;100855.75;5055852;28;20040;-61
2023/12/28 09:31:32;;;;;;;6.35;1.85;;;;;;;11.26;81.12;100850.47;5055866;28;20029;-61
2023/12/28 09:33:58;;;;;;;7.82;1.50;;;;;;;11.38;81.07;100846.03;5056423;28;20062;-61
2023/12/28 09:36:23;;;;;;;4.25;1.80;;;;;;;11.51;80.82;100855.44;5055744;28;20982;-61
2023/12/28 09:38:48;;;;;;;3.47;1.50;;;;;;;11.61;79.80;100847.53;5056301;28;20106;-61
2023/12/28 09:41:15;;;;;;;4.10;1.80;;;;;;;11.78;78.76;100827.47;5055289;28;20465;-61
2023/12/28 09:44:08;;;;;;;5.57;1.52;;;;;;;11.92;78.61;100835.09;5055720;28;20051;-63
2023/12/28 09:46:35;;;;;;;3.65;1.60;;;;;;;12.04;76.25;100800.41;5045274;28;20090;-63
2023/12/28 09:49:01;;;;;;;10.40;2.00;;;;;;;12.13;75.40;100789.91;5052592;28;20063;-64
2023/12/28 09:51:27;;;;;;;8.00;2.70;;;;;;;12.24;74.84;100788.00;5056406;28;20066;-64
2023/12/28 09:53:52;;;;;;;4.93;1.80;;;;;;;12.23;74.57;100788.88;5054298;28;20058;-63
2023/12/28 09:56:18;;;;;;;3.75;1.20;;;;;;;12.18;74.57;100793.28;5059125;28;20034;-64
2023/12/28 09:58:46;;;;;;;4.90;1.52;;;;;;;12.08;75.01;100796.91;5056433;28;20037;-63
2023/12/28 10:01:14;;;;;;;5.07;1.63;;;;;;;11.97;75.27;100796.16;5035970;28;20033;-64
2023/12/28 10:03:39;;;;;;;4.15;1.95;;;;;;;11.94;75.23;100807.44;5051018;28;20617;-64
2023/12/28 10:06:04;;;;;;;3.17;1.10;;;;;;;11.92;75.72;100816.09;5053773;28;20028;-61
2023/12/28 10:08:30;;;;;;;5.53;1.42;;;;;;;11.90;75.19;100803.16;5055825;28;20798;-63
2023/12/28 10:10:55;;;;;;;6.07;1.98;;;;;;;11.92;75.14;100804.00;5055814;28;20086;-64
2023/12/28 10:13:21;;;;;;;7.10;1.73;;;;;;;11.93;74.38;100784.16;5053919;28;20093;-60
2023/12/28 10:15:49;;;;;;;6.55;2.45;;;;;;;11.93;75.13;100797.09;5058694;28;20051;-60
2023/12/28 10:18:18;;;;;;;7.88;1.63;;;;;;;11.92;75.21;100803.16;5055311;28;20043;-64
2023/12/28 10:20:51;;;;;;;5.55;1.67;;;;;;;11.94;74.00;100784.13;5041310;28;20032;-61
2023/12/28 10:23:18;;;;;;;9.32;1.98;;;;;;;11.95;73.96;100784.97;5053116;28;20039;-61
2023/12/28 10:25:45;;;;;;;4.43;1.40;;;;;;;11.99;74.29;100776.28;5053614;28;20435;-61
2023/12/28 10:28:12;;;;;;;6.20;1.42;;;;;;;12.02;74.17;100766.72;5055188;28;20040;-61
2023/12/28 10:30:38;;;;;;;7.45;1.75;;;;;;;12.05;73.54;100745.94;5055385;28;20056;-61
2023/12/28 10:33:07;;;;;;;8.10;2.35;;;;;;;12.08;73.19;100739.91;5036902;28;20179;-61
2023/12/28 10:35:32;;;;;;;6.35;1.58;;;;;;;12.10;72.19;100730.34;5055263;28;20138;-61
2023/12/28 10:38:00;;;;;;;7.90;2.08;;;;;;;12.14;72.28;100734.63;5055127;28;20033;-62
2023/12/28 10:40:26;;;;;;;5.72;1.90;;;;;;;12.14;72.19;100724.25;5054343;28;20041;-61
2023/12/28 10:43:00;;;;;;;6.28;1.70;;;;;;;12.14;72.62;100730.28;5054628;28;20048;-60
2023/12/28 10:45:28;;;;;;;5.32;1.58;;;;;;;12.18;71.68;100710.34;5052099;28;20045;-60
2023/12/28 10:48:07;;;;;;;5.55;1.50;;;;;;;12.20;71.27;100711.19;5055831;28;20032;-60
2023/12/28 10:50:46;;;;;;;4.53;1.35;;;;;;;12.26;71.05;100700.72;5055444;28;20048;-60
2023/12/28 10:53:37;;;;;;;5.43;1.35;;;;;;;12.28;70.44;100686.03;5056565;28;20044;-60
2023/12/28 10:56:26;;;;;;;7.07;1.50;;;;;;;12.31;70.45;100693.75;5053763;28;20875;-59
2023/12/28 10:59:21;;;;;;;6.07;1.63;;;;;;;12.34;70.00;100684.19;5047277;28;20047;-60
2023/12/28 11:01:49;;;;;;;5.90;1.80;;;;;;;12.35;70.09;100683.28;5053743;28;20143;-58
2023/12/28 11:04:14;;;;;;;4.60;1.75;;;;;;;12.40;69.50;100675.44;5056509;28;20032;-59
2023/12/28 11:06:42;;;;;;;3.08;1.42;;;;;;;12.43;68.75;100654.66;5049033;28;20399;-59
2023/12/28 11:09:09;;;;;;;3.00;1.63;;;;;;;12.47;68.90;100656.28;5047289;28;20024;-58
2023/12/28 11:11:36;;;;;;;8.57;2.05;;;;;;;12.52;68.39;100656.22;5051467;28;20045;-59
2023/12/28 11:14:02;;;;;;;5.25;1.30;;;;;;;12.57;66.82;100618.09;5057439;28;20161;-58
2023/12/28 11:16:29;;;;;;;6.05;1.73;;;;;;;12.61;67.21;100628.41;5040012;28;20519;-58
2023/12/28 11:18:55;;;;;;;5.60;1.48;;;;;;;12.64;67.07;100627.47;5055601;28;20044;-59
2023/12/28 11:21:23;;;;;;;6.05;1.30;;;;;;;12.64;66.49;100617.09;5055287;28;20032;-58
2023/12/28 11:23:49;;;;;;;6.40;1.60;;;;;;;12.67;67.28;100624.84;5054699;28;20226;-58